Language: 


Des rapports , des résumés tant et plus, au choix de chacun....


Données statistiques de la station
Quotidien Rapport Mars 25, 2017 Unités:  Métrique    Anglais   les deux
« Précédent Jour
Suivant Jour »
Quotidien Hebdomadaire Mensuel Annuel Actuel
  Haut: Bas: Moyen:
Température: 16.8 °C 4.3 °C 10.4 °C
Pt de rosée: 4.6 °C -2.3 °C 1.9 °C
Humidité: 87 % 36 % 59 %
Vitesse du vent: 42.8 km/h 4.7 km/h 17.4 km/h
Rafales: 43.6 km/h - -
Vent:- - NE
Pression: 1029.0 hPa 1020.9 hPa -
Précipitation: 0.0 mm    
Historical Graphs
 
 
Données statistiques pour Mars 25, 2017
Heure Température Point de rosée Pression Vent Vitesse du vent Refales Humidité Pluie (taux horaire)
00:02 8.1 °C 4.6 °C 1029.0 hPa NNE 12.2 km/h 17.2 km/h 79 % 0.0 mm
00:07 7.8 °C 4.2 °C 1029.0 hPa NE 9.3 km/h 17.2 km/h 78 % 0.0 mm
00:12 7.8 °C 4.2 °C 1029.0 hPa NNE 13.0 km/h 15.4 km/h 78 % 0.0 mm
00:17 7.8 °C 4.4 °C 1029.0 hPa NE 13.7 km/h 16.9 km/h 79 % 0.0 mm
00:22 7.9 °C 4.5 °C 1029.0 hPa NE 15.1 km/h 19.8 km/h 79 % 0.0 mm
00:27 7.9 °C 4.3 °C 1029.0 hPa NE 14.8 km/h 19.8 km/h 78 % 0.0 mm
00:32 7.8 °C 4.2 °C 1029.0 hPa ENE 14.3 km/h 18.3 km/h 78 % 0.0 mm
00:37 7.9 °C 4.2 °C 1029.0 hPa ENE 13.0 km/h 18.3 km/h 77 % 0.0 mm
00:42 7.8 °C 4.1 °C 1029.0 hPa NE 16.3 km/h 18.0 km/h 77 % 0.0 mm
00:47 7.8 °C 4.1 °C 1029.0 hPa NE 14.0 km/h 16.9 km/h 77 % 0.0 mm
00:52 7.8 °C 4.1 °C 1029.0 hPa NE 13.0 km/h 16.9 km/h 77 % 0.0 mm
00:57 7.7 °C 3.9 °C 1029.0 hPa NE 14.0 km/h 18.0 km/h 77 % 0.0 mm
01:02 7.7 °C 3.9 °C 1029.0 hPa NE 15.8 km/h 18.0 km/h 77 % 0.0 mm
01:07 7.7 °C 3.9 °C 1029.0 hPa NE 14.0 km/h 17.7 km/h 77 % 0.0 mm
01:12 7.7 °C 3.9 °C 1029.0 hPa NNE 15.4 km/h 16.3 km/h 77 % 0.0 mm
01:17 7.6 °C 3.8 °C 1029.0 hPa NE 13.0 km/h 15.8 km/h 77 % 0.0 mm
01:23 7.4 °C 3.7 °C 1029.0 hPa ENE 13.7 km/h 16.3 km/h 77 % 0.0 mm
01:28 7.4 °C 3.7 °C 1029.0 hPa NNE 14.0 km/h 16.6 km/h 77 % 0.0 mm
01:33 7.3 °C 3.6 °C 1029.0 hPa NE 11.9 km/h 16.6 km/h 77 % 0.0 mm
01:38 7.3 °C 3.6 °C 1029.0 hPa NE 11.9 km/h 17.7 km/h 77 % 0.0 mm
01:43 7.3 °C 3.6 °C 1029.0 hPa NE 14.3 km/h 17.7 km/h 77 % 0.0 mm
01:48 7.3 °C 3.5 °C 1029.0 hPa NNE 11.6 km/h 15.4 km/h 77 % 0.0 mm
01:53 7.2 °C 3.4 °C 1029.0 hPa NE 13.0 km/h 15.4 km/h 77 % 0.0 mm
01:58 7.1 °C 3.3 °C 1029.0 hPa NNE 10.5 km/h 15.1 km/h 77 % 0.0 mm
02:03 7.1 °C 3.3 °C 1029.0 hPa NE 9.7 km/h 13.0 km/h 77 % 0.0 mm
02:08 6.9 °C 3.2 °C 1029.0 hPa NE 10.1 km/h 14.0 km/h 77 % 0.0 mm
02:13 6.8 °C 3.1 °C 1029.0 hPa NE 11.6 km/h 14.0 km/h 77 % 0.0 mm
02:18 6.8 °C 3.2 °C 1029.0 hPa NE 13.0 km/h 15.8 km/h 78 % 0.0 mm
02:23 6.7 °C 3.1 °C 1029.0 hPa NNE 12.6 km/h 16.9 km/h 78 % 0.0 mm
02:28 6.7 °C 3.3 °C 1029.0 hPa NNE 14.0 km/h 16.9 km/h 79 % 0.0 mm
02:33 6.7 °C 3.3 °C 1029.0 hPa North 13.0 km/h 15.4 km/h 79 % 0.0 mm
02:38 6.4 °C 3.1 °C 1029.0 hPa NE 12.2 km/h 15.4 km/h 79 % 0.0 mm
02:43 6.3 °C 2.9 °C 1029.0 hPa NNE 12.2 km/h 14.0 km/h 79 % 0.0 mm
02:48 6.1 °C 2.7 °C 1029.0 hPa North 10.1 km/h 15.8 km/h 79 % 0.0 mm
02:53 5.9 °C 2.5 °C 1028.0 hPa NNE 12.6 km/h 15.8 km/h 79 % 0.0 mm
02:58 5.7 °C 2.7 °C 1028.0 hPa NE 13.7 km/h 14.3 km/h 81 % 0.0 mm
03:03 5.7 °C 2.7 °C 1028.0 hPa NE 9.7 km/h 14.3 km/h 81 % 0.0 mm
03:08 5.8 °C 2.9 °C 1028.0 hPa NE 12.2 km/h 14.0 km/h 82 % 0.0 mm
03:13 6.0 °C 3.1 °C 1028.0 hPa NE 13.7 km/h 17.7 km/h 82 % 0.0 mm
03:18 6.0 °C 3.1 °C 1028.0 hPa NE 13.7 km/h 17.7 km/h 82 % 0.0 mm
03:23 6.0 °C 3.1 °C 1028.0 hPa NE 14.0 km/h 17.7 km/h 82 % 0.0 mm
03:28 6.0 °C 3.1 °C 1028.0 hPa NE 13.7 km/h 17.2 km/h 82 % 0.0 mm
03:33 6.0 °C 3.1 °C 1028.0 hPa NE 9.7 km/h 16.3 km/h 82 % 0.0 mm
03:38 6.0 °C 3.1 °C 1028.0 hPa NNE 11.6 km/h 16.3 km/h 82 % 0.0 mm
03:43 6.0 °C 2.9 °C 1028.0 hPa NE 11.9 km/h 16.3 km/h 81 % 0.0 mm
03:48 6.0 °C 2.9 °C 1028.0 hPa NE 12.2 km/h 16.6 km/h 81 % 0.0 mm
03:53 6.0 °C 2.9 °C 1028.0 hPa NNE 9.7 km/h 16.6 km/h 81 % 0.0 mm
03:58 5.9 °C 2.9 °C 1028.0 hPa NNE 16.3 km/h 16.3 km/h 81 % 0.0 mm
04:03 5.8 °C 2.8 °C 1028.0 hPa NE 10.1 km/h 16.3 km/h 81 % 0.0 mm
04:08 5.8 °C 2.8 °C 1027.0 hPa NE 13.0 km/h 15.8 km/h 81 % 0.0 mm
04:13 5.7 °C 2.8 °C 1027.0 hPa NE 4.7 km/h 15.8 km/h 82 % 0.0 mm
04:18 5.7 °C 2.7 °C 1027.0 hPa ENE 12.6 km/h 15.1 km/h 81 % 0.0 mm
04:23 5.6 °C 2.8 °C 1027.0 hPa NE 9.3 km/h 16.3 km/h 82 % 0.0 mm
04:28 5.5 °C 2.7 °C 1027.0 hPa NNE 13.0 km/h 16.3 km/h 82 % 0.0 mm
04:33 5.3 °C 2.4 °C 1027.0 hPa NE 7.9 km/h 14.0 km/h 82 % 0.0 mm
04:38 5.3 °C 2.4 °C 1027.0 hPa NE 10.1 km/h 14.3 km/h 82 % 0.0 mm
04:43 5.2 °C 2.6 °C 1027.0 hPa NE 9.3 km/h 14.3 km/h 83 % 0.0 mm
04:48 5.3 °C 2.6 °C 1027.0 hPa NE 14.8 km/h 19.5 km/h 83 % 0.0 mm
04:53 5.3 °C 2.6 °C 1027.0 hPa NE 12.2 km/h 19.5 km/h 83 % 0.0 mm
04:58 5.0 °C 2.3 °C 1027.0 hPa NNE 12.6 km/h 15.8 km/h 83 % 0.0 mm
04:59 5.0 °C 2.3 °C 1027.0 hPa NNE 12.6 km/h 15.8 km/h 83 % 0.0 mm
05:04 4.9 °C 2.4 °C 1027.0 hPa NNE 10.8 km/h 16.6 km/h 84 % 0.0 mm
05:05 4.8 °C 2.3 °C 1027.0 hPa NNE 14.0 km/h 16.6 km/h 84 % 0.0 mm
05:10 4.7 °C 2.4 °C 1027.0 hPa NNE 14.0 km/h 16.6 km/h 85 % 0.0 mm
05:15 4.6 °C 2.3 °C 1027.0 hPa NNE 11.1 km/h 16.6 km/h 85 % 0.0 mm
05:20 4.6 °C 2.4 °C 1027.0 hPa NNE 13.0 km/h 15.8 km/h 86 % 0.0 mm
05:25 4.6 °C 2.4 °C 1027.0 hPa NE 9.7 km/h 14.3 km/h 86 % 0.0 mm
05:30 4.5 °C 2.4 °C 1027.0 hPa NNE 9.7 km/h 14.0 km/h 86 % 0.0 mm
05:35 4.3 °C 2.2 °C 1027.0 hPa NE 7.9 km/h 14.0 km/h 86 % 0.0 mm
05:40 4.3 °C 2.2 °C 1027.0 hPa NE 11.9 km/h 13.0 km/h 86 % 0.0 mm
05:45 4.3 °C 2.2 °C 1027.0 hPa NE 10.5 km/h 13.0 km/h 86 % 0.0 mm
05:50 4.4 °C 2.4 °C 1027.0 hPa ENE 11.9 km/h 16.9 km/h 87 % 0.0 mm
05:55 4.5 °C 2.6 °C 1027.0 hPa NE 12.6 km/h 16.9 km/h 87 % 0.0 mm
06:00 4.6 °C 2.6 °C 1027.0 hPa NE 11.9 km/h 15.4 km/h 87 % 0.0 mm
06:05 4.5 °C 2.6 °C 1027.0 hPa NE 15.8 km/h 15.8 km/h 87 % 0.0 mm
06:10 4.7 °C 2.7 °C 1027.0 hPa NNE 12.6 km/h 16.6 km/h 87 % 0.0 mm
06:15 4.8 °C 2.8 °C 1027.0 hPa NNE 11.6 km/h 16.6 km/h 87 % 0.0 mm
06:21 4.8 °C 2.8 °C 1027.0 hPa NE 11.1 km/h 17.2 km/h 87 % 0.0 mm
06:26 4.7 °C 2.6 °C 1027.0 hPa ENE 9.7 km/h 17.2 km/h 86 % 0.0 mm
06:30 4.7 °C 2.6 °C 1027.0 hPa NE 13.0 km/h 16.9 km/h 86 % 0.0 mm
06:36 4.7 °C 2.6 °C 1027.0 hPa ENE 10.5 km/h 16.9 km/h 86 % 0.0 mm
06:41 4.7 °C 2.6 °C 1027.0 hPa NNE 15.4 km/h 17.2 km/h 86 % 0.0 mm
06:46 4.7 °C 2.6 °C 1027.0 hPa NE 14.0 km/h 17.2 km/h 86 % 0.0 mm
06:56 4.6 °C 2.4 °C 1027.0 hPa ENE 15.4 km/h 16.6 km/h 86 % 0.0 mm
07:01 4.7 °C 2.6 °C 1027.0 hPa NE 12.2 km/h 16.9 km/h 86 % 0.0 mm
07:06 4.7 °C 2.6 °C 1027.0 hPa ENE 12.6 km/h 16.9 km/h 86 % 0.0 mm
07:11 4.9 °C 2.8 °C 1027.0 hPa NE 17.2 km/h 17.2 km/h 86 % 0.0 mm
07:16 5.0 °C 2.8 °C 1027.0 hPa NE 21.2 km/h 21.2 km/h 86 % 0.0 mm
07:21 5.2 °C 3.1 °C 1027.0 hPa NE 12.2 km/h 21.2 km/h 86 % 0.0 mm
07:26 5.3 °C 3.1 °C 1027.0 hPa NE 15.8 km/h 17.2 km/h 86 % 0.0 mm
07:31 5.6 °C 3.3 °C 1027.0 hPa NE 11.6 km/h 18.3 km/h 85 % 0.0 mm
07:36 5.7 °C 3.3 °C 1027.0 hPa NE 10.1 km/h 18.3 km/h 85 % 0.0 mm
07:41 5.9 °C 3.4 °C 1027.0 hPa NE 13.7 km/h 15.8 km/h 84 % 0.0 mm
07:46 6.1 °C 3.4 °C 1027.0 hPa NE 15.8 km/h 19.8 km/h 83 % 0.0 mm
07:51 6.3 °C 3.4 °C 1027.0 hPa ENE 10.5 km/h 19.8 km/h 82 % 0.0 mm
07:56 6.4 °C 3.4 °C 1027.0 hPa NNE 13.0 km/h 17.7 km/h 81 % 0.0 mm
08:01 6.7 °C 3.4 °C 1027.0 hPa ENE 17.7 km/h 19.5 km/h 80 % 0.0 mm
08:06 6.8 °C 3.4 °C 1027.0 hPa ENE 16.6 km/h 20.9 km/h 79 % 0.0 mm
08:11 7.1 °C 3.7 °C 1028.0 hPa NE 16.3 km/h 20.9 km/h 79 % 0.0 mm
08:16 7.2 °C 3.4 °C 1028.0 hPa NE 17.2 km/h 20.6 km/h 77 % 0.0 mm
08:21 7.3 °C 3.6 °C 1028.0 hPa ENE 10.1 km/h 20.6 km/h 77 % 0.0 mm
08:22 7.3 °C 3.6 °C 1028.0 hPa ENE 9.7 km/h 20.6 km/h 77 % 0.0 mm
08:27 7.6 °C 3.6 °C 1028.0 hPa ENE 13.7 km/h 17.7 km/h 76 % 0.0 mm
08:32 7.6 °C 3.4 °C 1028.0 hPa NE 11.6 km/h 19.8 km/h 75 % 0.0 mm
08:37 7.6 °C 3.4 °C 1028.0 hPa NE 16.6 km/h 19.8 km/h 75 % 0.0 mm
08:42 7.7 °C 3.6 °C 1028.0 hPa NE 12.2 km/h 23.3 km/h 75 % 0.0 mm
08:47 7.9 °C 3.8 °C 1028.0 hPa NE 15.1 km/h 23.3 km/h 75 % 0.0 mm
08:52 8.1 °C 3.8 °C 1028.0 hPa NE 15.4 km/h 20.1 km/h 74 % 0.0 mm
08:57 8.3 °C 3.8 °C 1027.0 hPa NE 14.8 km/h 20.6 km/h 73 % 0.0 mm
09:02 8.4 °C 3.9 °C 1027.0 hPa East 16.9 km/h 22.4 km/h 73 % 0.0 mm
09:07 8.6 °C 4.1 °C 1027.0 hPa NE 14.0 km/h 22.4 km/h 73 % 0.0 mm
09:12 8.7 °C 3.9 °C 1027.0 hPa NE 20.1 km/h 21.2 km/h 72 % 0.0 mm
09:17 9.0 °C 4.1 °C 1027.0 hPa ENE 16.3 km/h 21.2 km/h 71 % 0.0 mm
09:22 9.1 °C 3.9 °C 1027.0 hPa NE 14.0 km/h 20.9 km/h 70 % 0.0 mm
09:27 9.3 °C 4.1 °C 1027.0 hPa NE 14.0 km/h 19.5 km/h 70 % 0.0 mm
09:32 9.5 °C 4.1 °C 1027.0 hPa NE 12.2 km/h 20.9 km/h 69 % 0.0 mm
09:37 9.6 °C 4.0 °C 1027.0 hPa ENE 16.9 km/h 23.8 km/h 68 % 0.0 mm
09:42 10.0 °C 4.6 °C 1027.0 hPa NE 18.3 km/h 23.8 km/h 69 % 0.0 mm
09:43 10.0 °C 4.3 °C 1027.0 hPa NE 24.8 km/h 24.8 km/h 68 % 0.0 mm
09:48 10.3 °C 4.4 °C 1027.0 hPa NE 16.9 km/h 24.8 km/h 67 % 0.0 mm
09:53 10.4 °C 4.3 °C 1027.0 hPa ENE 16.9 km/h 24.8 km/h 66 % 0.0 mm
09:58 10.7 °C 4.6 °C 1027.0 hPa East 15.4 km/h 23.8 km/h 66 % 0.0 mm
10:03 10.9 °C 4.3 °C 1027.0 hPa NE 14.0 km/h 20.6 km/h 64 % 0.0 mm
10:08 11.0 °C 3.9 °C 1026.0 hPa NE 18.3 km/h 28.5 km/h 62 % 0.0 mm
10:13 11.3 °C 4.5 °C 1026.0 hPa NE 16.6 km/h 28.5 km/h 63 % 0.0 mm
10:18 11.4 °C 4.2 °C 1026.0 hPa NE 20.6 km/h 28.5 km/h 61 % 0.0 mm
10:23 11.6 °C 3.8 °C 1027.0 hPa ENE 20.6 km/h 28.5 km/h 59 % 0.0 mm
10:28 11.8 °C 4.0 °C 1027.0 hPa NE 20.9 km/h 27.4 km/h 59 % 0.0 mm
10:33 11.9 °C 3.7 °C 1027.0 hPa ENE 20.1 km/h 30.9 km/h 57 % 0.0 mm
10:38 12.1 °C 3.8 °C 1027.0 hPa ENE 18.3 km/h 30.9 km/h 57 % 0.0 mm
10:43 12.3 °C 4.1 °C 1027.0 hPa NE 20.1 km/h 24.8 km/h 57 % 0.0 mm
10:48 12.4 °C 3.9 °C 1027.0 hPa NE 23.8 km/h 24.8 km/h 56 % 0.0 mm
10:53 12.6 °C 3.7 °C 1027.0 hPa ENE 23.0 km/h 28.0 km/h 55 % 0.0 mm
10:58 12.7 °C 3.9 °C 1027.0 hPa NNE 16.9 km/h 28.0 km/h 55 % 0.0 mm
11:03 12.8 °C 3.7 °C 1027.0 hPa ENE 16.6 km/h 24.5 km/h 54 % 0.0 mm
11:08 13.1 °C 3.9 °C 1027.0 hPa ENE 17.7 km/h 25.9 km/h 54 % 0.0 mm
11:18 13.2 °C 3.6 °C 1027.0 hPa NE 24.5 km/h 29.1 km/h 52 % 0.0 mm
11:23 13.4 °C 3.8 °C 1026.0 hPa NNE 17.2 km/h 29.1 km/h 52 % 0.0 mm
11:33 13.6 °C 3.7 °C 1026.0 hPa NE 16.3 km/h 32.3 km/h 51 % 0.0 mm
11:38 13.7 °C 3.5 °C 1026.0 hPa NE 22.7 km/h 32.3 km/h 50 % 0.0 mm
11:48 14.2 °C 3.6 °C 1026.0 hPa NE 21.2 km/h 28.5 km/h 49 % 0.0 mm
11:53 14.2 °C 3.3 °C 1026.0 hPa NE 26.7 km/h 38.5 km/h 48 % 0.0 mm
11:58 14.2 °C 3.3 °C 1026.0 hPa NE 17.2 km/h 38.5 km/h 48 % 0.0 mm
12:03 14.2 °C 3.1 °C 1026.0 hPa NE 33.8 km/h 38.9 km/h 47 % 0.0 mm
12:08 14.2 °C 3.1 °C 1026.0 hPa NNE 21.9 km/h 38.9 km/h 47 % 0.0 mm
12:13 14.4 °C 3.2 °C 1026.0 hPa NE 27.0 km/h 37.5 km/h 47 % 0.0 mm
12:14 14.4 °C 3.2 °C 1026.0 hPa NE 29.9 km/h 37.5 km/h 47 % 0.0 mm
12:19 14.3 °C 2.8 °C 1026.0 hPa ENE 25.6 km/h 41.7 km/h 46 % 0.0 mm
12:24 14.5 °C 3.0 °C 1024.9 hPa ENE 21.6 km/h 41.7 km/h 46 % 0.0 mm
12:29 14.8 °C 3.3 °C 1024.9 hPa NE 31.7 km/h 38.5 km/h 46 % 0.0 mm
12:34 14.7 °C 2.6 °C 1024.9 hPa NNE 25.3 km/h 39.3 km/h 44 % 0.0 mm
12:39 14.9 °C 3.1 °C 1024.9 hPa ENE 32.0 km/h 39.3 km/h 45 % 0.0 mm
12:44 15.1 °C 2.6 °C 1024.9 hPa NNE 24.8 km/h 38.5 km/h 43 % 0.0 mm
12:49 15.5 °C 2.6 °C 1024.9 hPa NE 30.2 km/h 38.5 km/h 42 % 0.0 mm
12:54 15.6 °C 2.7 °C 1024.9 hPa ENE 20.9 km/h 32.8 km/h 42 % 0.0 mm
12:59 15.6 °C 2.7 °C 1024.9 hPa ENE 18.0 km/h 36.0 km/h 42 % 0.0 mm
13:04 15.6 °C 2.7 °C 1024.9 hPa NE 25.3 km/h 39.3 km/h 42 % 0.0 mm
13:09 15.6 °C 2.7 °C 1024.9 hPa NE 38.5 km/h 40.4 km/h 42 % 0.0 mm
13:14 15.7 °C 2.4 °C 1024.9 hPa ENE 25.3 km/h 40.4 km/h 41 % 0.0 mm
13:19 15.7 °C 2.1 °C 1024.9 hPa NE 35.6 km/h 43.6 km/h 40 % 0.0 mm
13:27 15.9 °C 2.6 °C 1023.9 hPa ENE 23.8 km/h 43.6 km/h 41 % 0.0 mm
13:32 15.9 °C 2.9 °C 1023.9 hPa NE 30.6 km/h 35.6 km/h 42 % 0.0 mm
13:37 15.7 °C 2.4 °C 1023.9 hPa NE 24.8 km/h 41.7 km/h 41 % 0.0 mm
13:42 15.7 °C 2.1 °C 1024.9 hPa East 28.5 km/h 41.7 km/h 40 % 0.0 mm
13:47 16.0 °C 2.7 °C 1024.9 hPa NE 25.6 km/h 40.7 km/h 41 % 0.0 mm
13:52 16.0 °C 2.7 °C 1024.9 hPa NE 31.7 km/h 37.8 km/h 41 % 0.0 mm
13:54 16.0 °C 2.7 °C 1024.9 hPa NE 32.0 km/h 37.8 km/h 41 % 0.0 mm
13:58 16.0 °C 2.4 °C 1024.9 hPa NE 31.7 km/h 37.8 km/h 40 % 0.0 mm
14:03 16.0 °C 2.0 °C 1024.9 hPa ENE 21.2 km/h 34.6 km/h 39 % 0.0 mm
14:08 16.1 °C 2.1 °C 1023.9 hPa NE 22.7 km/h 39.3 km/h 39 % 0.0 mm
14:13 16.0 °C 2.0 °C 1023.9 hPa NE 32.3 km/h 39.3 km/h 39 % 0.0 mm
14:18 16.2 °C 2.6 °C 1023.9 hPa NE 21.2 km/h 37.8 km/h 40 % 0.0 mm
14:24 16.2 °C 2.2 °C 1023.9 hPa NNE 28.0 km/h 37.0 km/h 39 % 0.0 mm
14:29 16.2 °C 2.6 °C 1023.9 hPa NE 19.8 km/h 37.5 km/h 40 % 0.0 mm
14:34 16.2 °C 2.2 °C 1023.9 hPa NE 20.6 km/h 37.8 km/h 39 % 0.0 mm
14:39 16.4 °C 2.4 °C 1022.9 hPa ENE 16.3 km/h 37.8 km/h 39 % 0.0 mm
14:43 16.7 °C 2.6 °C 1022.9 hPa ENE 20.9 km/h 28.5 km/h 39 % 0.0 mm
14:48 16.4 °C 2.0 °C 1022.9 hPa ENE 24.5 km/h 37.0 km/h 38 % 0.0 mm
14:54 16.4 °C 2.4 °C 1022.9 hPa NNE 25.9 km/h 37.0 km/h 39 % 0.0 mm
14:59 16.4 °C 1.6 °C 1022.9 hPa NE 41.0 km/h 41.0 km/h 37 % 0.0 mm
15:04 16.4 °C 1.7 °C 1022.9 hPa ENE 31.7 km/h 41.0 km/h 37 % 0.0 mm
15:05 16.4 °C 1.7 °C 1022.9 hPa NE 21.6 km/h 41.0 km/h 37 % 0.0 mm
15:10 16.7 °C 1.9 °C 1022.9 hPa ENE 17.7 km/h 40.7 km/h 37 % 0.0 mm
15:15 16.6 °C 1.8 °C 1022.9 hPa NE 30.6 km/h 36.4 km/h 37 % 0.0 mm
15:20 16.8 °C 2.0 °C 1022.9 hPa NE 20.9 km/h 36.4 km/h 37 % 0.0 mm
15:25 16.7 °C 1.9 °C 1022.9 hPa NE 20.1 km/h 31.7 km/h 37 % 0.0 mm
15:30 16.6 °C 1.8 °C 1022.9 hPa NE 20.9 km/h 31.4 km/h 37 % 0.0 mm
15:35 16.4 °C 2.1 °C 1022.9 hPa NNE 23.0 km/h 36.0 km/h 38 % 0.0 mm
15:40 16.4 °C 1.7 °C 1022.9 hPa NE 42.8 km/h 42.8 km/h 37 % 0.0 mm
15:44 16.4 °C 2.1 °C 1022.9 hPa ENE 28.5 km/h 42.8 km/h 38 % 0.0 mm
15:49 16.4 °C 1.7 °C 1022.9 hPa NE 25.9 km/h 42.8 km/h 37 % 0.0 mm
15:59 16.3 °C 1.6 °C 1022.9 hPa NE 33.1 km/h 40.7 km/h 37 % 0.0 mm
16:04 16.2 °C 1.4 °C 1022.9 hPa NE 36.0 km/h 41.0 km/h 37 % 0.0 mm
16:09 16.3 °C 1.6 °C 1021.9 hPa NE 21.9 km/h 41.0 km/h 37 % 0.0 mm
16:14 16.3 °C 1.6 °C 1021.9 hPa ENE 20.6 km/h 38.9 km/h 37 % 0.0 mm
16:19 16.3 °C 1.6 °C 1021.9 hPa ENE 20.1 km/h 38.9 km/h 37 % 0.0 mm
16:24 16.2 °C 1.1 °C 1021.9 hPa NE 32.8 km/h 41.0 km/h 36 % 0.0 mm
16:29 16.1 °C 1.0 °C 1021.9 hPa NNE 28.5 km/h 41.7 km/h 36 % 0.0 mm
16:34 16.0 °C 0.9 °C 1021.9 hPa ENE 27.7 km/h 41.7 km/h 36 % 0.0 mm
16:39 15.9 °C 0.8 °C 1021.9 hPa NE 20.1 km/h 37.8 km/h 36 % 0.0 mm
16:44 15.8 °C 0.7 °C 1021.9 hPa NE 24.8 km/h 36.4 km/h 36 % 0.0 mm
16:49 15.8 °C 0.7 °C 1021.9 hPa NE 21.2 km/h 36.4 km/h 36 % 0.0 mm
16:54 15.7 °C 1.0 °C 1021.9 hPa NE 27.7 km/h 35.6 km/h 37 % 0.0 mm
16:59 15.6 °C 1.3 °C 1021.9 hPa NNE 20.9 km/h 30.9 km/h 38 % 0.0 mm
17:04 15.4 °C 1.1 °C 1021.9 hPa NE 19.8 km/h 36.7 km/h 38 % 0.0 mm
17:05 15.3 °C 1.4 °C 1021.9 hPa NE 20.6 km/h 36.7 km/h 39 % 0.0 mm
17:10 15.2 °C 1.3 °C 1021.9 hPa NE 19.8 km/h 36.7 km/h 39 % 0.0 mm
17:15 15.2 °C 0.9 °C 1021.9 hPa ENE 20.1 km/h 31.4 km/h 38 % 0.0 mm
17:20 15.3 °C 1.1 °C 1021.9 hPa NE 24.8 km/h 31.7 km/h 38 % 0.0 mm
17:25 15.3 °C 1.1 °C 1021.9 hPa NE 20.1 km/h 36.7 km/h 38 % 0.0 mm
17:30 15.3 °C 1.1 °C 1021.9 hPa ENE 15.1 km/h 36.7 km/h 38 % 0.0 mm
17:35 15.2 °C 0.9 °C 1021.9 hPa NE 21.2 km/h 25.3 km/h 38 % 0.0 mm
17:40 14.9 °C 0.3 °C 1021.9 hPa NE 16.9 km/h 28.0 km/h 37 % 0.0 mm
17:45 14.8 °C 0.2 °C 1021.9 hPa ENE 24.8 km/h 28.0 km/h 37 % 0.0 mm
17:50 14.7 °C 0.2 °C 1021.9 hPa ENE 17.7 km/h 29.1 km/h 37 % 0.0 mm
17:55 14.7 °C 0.5 °C 1021.9 hPa NE 15.8 km/h 29.1 km/h 38 % 0.0 mm
18:00 14.6 °C 0.4 °C 1021.9 hPa ENE 16.3 km/h 28.0 km/h 38 % 0.0 mm
18:05 14.5 °C 0.3 °C 1021.9 hPa NE 16.9 km/h 28.0 km/h 38 % 0.0 mm
18:10 14.3 °C 0.2 °C 1021.9 hPa ENE 20.6 km/h 23.8 km/h 38 % 0.0 mm
18:15 14.2 °C 0.4 °C 1021.9 hPa NNE 13.7 km/h 23.8 km/h 39 % 0.0 mm
18:20 14.1 °C 0.3 °C 1021.9 hPa NE 13.7 km/h 21.2 km/h 39 % 0.0 mm
18:25 14.1 °C 0.3 °C 1020.9 hPa NNE 13.7 km/h 22.4 km/h 39 % 0.0 mm
18:30 13.8 °C 0.4 °C 1020.9 hPa ENE 14.8 km/h 22.4 km/h 40 % 0.0 mm
18:35 13.6 °C 0.3 °C 1020.9 hPa ENE 11.9 km/h 21.6 km/h 40 % 0.0 mm
18:40 13.5 °C 0.2 °C 1020.9 hPa ENE 15.8 km/h 20.9 km/h 40 % 0.0 mm
18:45 13.4 °C 0.1 °C 1020.9 hPa NE 13.7 km/h 20.9 km/h 40 % 0.0 mm
18:50 13.2 °C -0.1 °C 1020.9 hPa NE 12.6 km/h 20.9 km/h 40 % 0.0 mm
18:55 13.2 °C 0.2 °C 1021.9 hPa NE 13.7 km/h 20.6 km/h 41 % 0.0 mm
19:00 13.1 °C 0.1 °C 1021.9 hPa NE 13.0 km/h 20.6 km/h 41 % 0.0 mm
19:05 12.8 °C -0.1 °C 1021.9 hPa NE 20.6 km/h 20.6 km/h 41 % 0.0 mm
19:10 12.7 °C -0.2 °C 1021.9 hPa ENE 20.9 km/h 20.9 km/h 41 % 0.0 mm
19:15 12.7 °C -0.2 °C 1021.9 hPa NE 17.2 km/h 22.7 km/h 41 % 0.0 mm
19:20 12.6 °C -0.1 °C 1021.9 hPa ENE 17.2 km/h 23.3 km/h 42 % 0.0 mm
19:25 12.4 °C -0.1 °C 1021.9 hPa NE 13.7 km/h 23.3 km/h 42 % 0.0 mm
19:30 12.2 °C -0.3 °C 1021.9 hPa NE 12.6 km/h 19.8 km/h 42 % 0.0 mm
19:35 12.2 °C -0.1 °C 1021.9 hPa NE 17.2 km/h 18.3 km/h 43 % 0.0 mm
19:40 12.1 °C -0.2 °C 1021.9 hPa NE 14.0 km/h 20.9 km/h 43 % 0.0 mm
19:45 11.9 °C -0.2 °C 1021.9 hPa NE 16.6 km/h 22.7 km/h 43 % 0.0 mm
19:55 11.8 °C -0.3 °C 1021.9 hPa NE 17.2 km/h 22.4 km/h 43 % 0.0 mm
20:06 11.7 °C -0.5 °C 1021.9 hPa ENE 20.9 km/h 22.4 km/h 43 % 0.0 mm
20:11 11.7 °C -0.8 °C 1021.9 hPa NE 17.7 km/h 22.4 km/h 42 % 0.0 mm
20:16 11.6 °C -0.9 °C 1021.9 hPa NE 16.9 km/h 21.6 km/h 42 % 0.0 mm
20:21 11.4 °C -1.0 °C 1021.9 hPa NE 17.2 km/h 23.3 km/h 42 % 0.0 mm
20:26 11.4 °C -1.0 °C 1021.9 hPa NE 16.6 km/h 23.3 km/h 42 % 0.0 mm
20:31 11.3 °C -1.2 °C 1021.9 hPa NE 16.3 km/h 20.1 km/h 42 % 0.0 mm
20:36 11.2 °C -1.3 °C 1021.9 hPa NE 14.3 km/h 21.6 km/h 42 % 0.0 mm
20:41 11.1 °C -1.4 °C 1021.9 hPa NE 15.8 km/h 21.6 km/h 42 % 0.0 mm
20:46 11.0 °C -1.4 °C 1021.9 hPa NE 12.6 km/h 20.6 km/h 42 % 0.0 mm
20:51 10.9 °C -1.6 °C 1021.9 hPa NE 17.2 km/h 17.7 km/h 42 % 0.0 mm
20:56 10.8 °C -1.6 °C 1022.9 hPa NE 16.6 km/h 17.7 km/h 42 % 0.0 mm
21:01 10.8 °C -1.6 °C 1022.9 hPa NE 12.2 km/h 20.1 km/h 42 % 0.0 mm
21:06 10.7 °C -1.7 °C 1022.9 hPa NE 12.6 km/h 20.1 km/h 42 % 0.0 mm
21:11 10.5 °C -1.9 °C 1021.9 hPa NE 12.6 km/h 17.2 km/h 42 % 0.0 mm
21:16 10.6 °C -1.8 °C 1021.9 hPa NE 14.0 km/h 19.5 km/h 42 % 0.0 mm
21:21 10.5 °C -1.9 °C 1021.9 hPa NE 14.8 km/h 19.5 km/h 42 % 0.0 mm
21:26 10.3 °C -2.1 °C 1022.9 hPa NE 11.9 km/h 17.2 km/h 42 % 0.0 mm
21:31 10.4 °C -2.0 °C 1022.9 hPa NE 13.7 km/h 21.2 km/h 42 % 0.0 mm
21:36 10.3 °C -2.1 °C 1022.9 hPa NE 10.5 km/h 21.2 km/h 42 % 0.0 mm
21:41 10.2 °C -2.2 °C 1022.9 hPa ENE 14.0 km/h 21.2 km/h 42 % 0.0 mm
21:46 10.1 °C -2.3 °C 1022.9 hPa NE 16.3 km/h 19.5 km/h 42 % 0.0 mm
21:56 10.0 °C -2.0 °C 1022.9 hPa ENE 16.6 km/h 20.6 km/h 43 % 0.0 mm
22:01 9.8 °C -2.2 °C 1022.9 hPa NE 14.8 km/h 20.6 km/h 43 % 0.0 mm
22:06 9.7 °C -2.0 °C 1022.9 hPa NE 11.9 km/h 20.6 km/h 44 % 0.0 mm
22:11 9.4 °C -2.2 °C 1022.9 hPa NE 15.1 km/h 19.5 km/h 44 % 0.0 mm
22:16 9.4 °C -1.9 °C 1022.9 hPa NE 17.7 km/h 20.6 km/h 45 % 0.0 mm
22:21 9.4 °C -1.9 °C 1022.9 hPa NE 16.3 km/h 21.2 km/h 45 % 0.0 mm
22:26 9.3 °C -1.7 °C 1022.9 hPa NE 23.3 km/h 23.3 km/h 46 % 0.0 mm
22:31 9.3 °C -1.7 °C 1022.9 hPa NE 20.1 km/h 25.9 km/h 46 % 0.0 mm
22:36 9.4 °C -1.3 °C 1022.9 hPa North 16.3 km/h 25.9 km/h 47 % 0.0 mm
22:41 9.2 °C -1.6 °C 1021.9 hPa NE 17.2 km/h 24.8 km/h 47 % 0.0 mm
22:46 9.2 °C -1.6 °C 1021.9 hPa ENE 17.2 km/h 20.1 km/h 47 % 0.0 mm
22:51 9.2 °C -1.6 °C 1021.9 hPa NNE 19.5 km/h 25.9 km/h 47 % 0.0 mm
22:56 9.2 °C -1.6 °C 1021.9 hPa NE 20.9 km/h 25.9 km/h 47 % 0.0 mm
23:01 9.2 °C -1.6 °C 1021.9 hPa NE 20.9 km/h 23.3 km/h 47 % 0.0 mm
23:06 9.1 °C -1.3 °C 1021.9 hPa NE 18.3 km/h 23.3 km/h 48 % 0.0 mm
23:11 9.0 °C -1.4 °C 1021.9 hPa NE 20.1 km/h 22.7 km/h 48 % 0.0 mm
23:16 8.9 °C -1.5 °C 1021.9 hPa NNE 24.5 km/h 24.5 km/h 48 % 0.0 mm
23:21 8.8 °C -1.6 °C 1021.9 hPa NNE 17.7 km/h 24.5 km/h 48 % 0.0 mm
23:26 8.7 °C -1.4 °C 1021.9 hPa NE 17.2 km/h 23.3 km/h 49 % 0.0 mm
23:31 8.7 °C -1.4 °C 1021.9 hPa NE 15.1 km/h 21.9 km/h 49 % 0.0 mm
23:37 8.6 °C -1.5 °C 1021.9 hPa NE 12.6 km/h 21.9 km/h 49 % 0.0 mm
23:42 8.5 °C -1.3 °C 1021.9 hPa NE 14.0 km/h 20.6 km/h 50 % 0.0 mm
23:47 8.5 °C -1.3 °C 1021.9 hPa NE 15.1 km/h 20.6 km/h 50 % 0.0 mm
23:52 8.5 °C -1.1 °C 1021.9 hPa ENE 12.2 km/h 20.6 km/h 51 % 0.0 mm
23:57 8.3 °C -1.2 °C 1021.9 hPa NE 12.6 km/h 16.6 km/h 51 % 0.0 mm
Le Gheer Warneton
Courtoisie de Weather Underground - 2.5 mb

Mise a jour : 18/12/2017 04:16:12
Généré par Cumulus 1.9.4 (1099)